createdAt,value
2023-04-09T00:01:44.312Z,22.88
2023-04-09T00:04:31.705Z,22.75
2023-04-09T00:07:22.083Z,23.60
2023-04-09T00:10:09.980Z,24.33
2023-04-09T00:12:59.508Z,24.13
2023-04-09T00:15:47.440Z,24.70
2023-04-09T00:18:35.334Z,24.58
2023-04-09T00:21:22.917Z,23.08
2023-04-09T00:24:12.765Z,23.05
2023-04-09T00:27:00.168Z,24.80
2023-04-09T00:29:48.036Z,25.38
2023-04-09T00:32:35.558Z,25.17
2023-04-09T00:35:22.962Z,24.98
2023-04-09T00:38:10.536Z,25.25
2023-04-09T00:41:00.259Z,23.77
2023-04-09T00:43:59.113Z,25.42
2023-04-09T00:46:46.542Z,23.88
2023-04-09T00:49:36.692Z,24.45
2023-04-09T00:52:25.119Z,24.63
2023-04-09T00:55:13.593Z,23.77
2023-04-09T00:58:01.455Z,24.42
2023-04-09T01:00:51.123Z,23.17
2023-04-09T01:03:38.601Z,23.15
2023-04-09T01:06:51.782Z,25.88
2023-04-09T01:09:46.635Z,24.95
2023-04-09T01:12:46.062Z,23.63
2023-04-09T01:15:40.130Z,26.05
2023-04-09T01:18:49.295Z,23.65
2023-04-09T01:21:38.918Z,24.92
2023-04-09T01:24:51.969Z,23.90
2023-04-09T01:31:16.120Z,24.88
2023-04-09T01:34:20.467Z,24.23
2023-04-09T01:37:10.102Z,24.00
2023-04-09T01:39:57.799Z,24.20
2023-04-09T01:42:47.486Z,25.30
2023-04-09T01:45:37.414Z,24.48
2023-04-09T01:48:25.244Z,25.75
2023-04-09T01:51:16.858Z,26.27
2023-04-09T01:54:04.833Z,24.88
2023-04-09T01:56:52.446Z,25.08
2023-04-09T01:59:39.712Z,25.10
2023-04-09T02:02:46.315Z,25.58
2023-04-09T02:05:40.926Z,24.67
2023-04-09T02:08:28.896Z,25.88
2023-04-09T02:11:16.763Z,26.50
2023-04-09T02:14:05.130Z,25.55
2023-04-09T02:16:55.086Z,25.95
2023-04-09T02:19:44.829Z,25.95
2023-04-09T02:22:32.176Z,26.40
2023-04-09T02:25:26.612Z,25.10
2023-04-09T02:28:14.000Z,25.30
2023-04-09T02:31:01.314Z,26.52
2023-04-09T02:33:48.500Z,25.52
2023-04-09T02:36:35.776Z,27.20
2023-04-09T02:39:23.069Z,24.95
2023-04-09T02:42:10.649Z,25.80
2023-04-09T02:44:57.774Z,27.00
2023-04-09T02:47:45.000Z,28.85
2023-04-09T02:50:32.377Z,28.33
2023-04-09T02:53:21.769Z,27.15
2023-04-09T02:56:08.882Z,27.83
2023-04-09T02:58:56.216Z,27.88
2023-04-09T03:01:43.789Z,26.92
2023-04-09T03:04:31.131Z,28.77
2023-04-09T03:07:18.403Z,25.67
2023-04-09T03:10:05.926Z,28.75
2023-04-09T03:12:53.114Z,29.50
2023-04-09T03:15:40.734Z,30.60
2023-04-09T03:18:27.926Z,30.25
2023-04-09T03:21:16.631Z,28.48
2023-04-09T03:24:03.996Z,31.83
2023-04-09T03:26:51.376Z,30.90
2023-04-09T03:29:38.527Z,33.67
2023-04-09T03:32:25.945Z,34.25
2023-04-09T03:35:13.108Z,33.30
2023-04-09T03:38:00.519Z,30.92
2023-04-09T03:40:47.890Z,33.63
2023-04-09T03:43:37.605Z,31.42
2023-04-09T03:46:27.224Z,30.83
2023-04-09T03:49:14.660Z,31.20
2023-04-09T03:52:02.265Z,30.35
2023-04-09T03:54:49.361Z,27.17
2023-04-09T03:57:36.661Z,26.35
2023-04-09T04:00:24.807Z,29.08
2023-04-09T04:03:18.510Z,29.88
2023-04-09T04:06:05.923Z,32.13
2023-04-09T04:08:54.724Z,33.45
2023-04-09T04:11:44.336Z,31.35
2023-04-09T04:14:31.492Z,30.52
2023-04-09T04:17:18.706Z,33.60
2023-04-09T04:20:07.640Z,34.10
2023-04-09T04:22:54.807Z,31.67
2023-04-09T04:25:43.257Z,30.52
2023-04-09T04:28:34.250Z,31.40
2023-04-09T04:31:21.575Z,31.05
2023-04-09T04:34:08.757Z,33.95
2023-04-09T04:36:56.061Z,34.42
2023-04-09T04:39:43.245Z,37.92
2023-04-09T04:42:30.413Z,37.35
2023-04-09T04:45:19.842Z,34.72
2023-04-09T04:48:07.005Z,37.20
2023-04-09T04:51:02.120Z,38.00
2023-04-09T04:53:51.454Z,36.30
2023-04-09T04:56:38.680Z,37.10
2023-04-09T04:59:33.138Z,35.35
2023-04-09T05:02:20.465Z,34.85
2023-04-09T05:05:08.097Z,35.45
2023-04-09T05:07:55.414Z,35.33
2023-04-09T05:10:43.920Z,36.88
2023-04-09T05:13:31.397Z,34.60
2023-04-09T05:16:20.811Z,32.75
2023-04-09T05:19:11.427Z,30.73
2023-04-09T05:22:00.769Z,33.40
2023-04-09T05:24:47.972Z,32.03
2023-04-09T05:27:38.126Z,33.20
2023-04-09T05:30:27.542Z,34.55
2023-04-09T05:33:14.934Z,33.83
2023-04-09T05:36:03.372Z,33.22
2023-04-09T05:38:56.362Z,32.78
2023-04-09T05:41:47.292Z,32.80
2023-04-09T05:44:39.433Z,32.63
2023-04-09T05:47:26.605Z,31.05
2023-04-09T05:50:16.186Z,30.52
2023-04-09T05:53:04.138Z,32.70
2023-04-09T05:55:51.580Z,32.97
2023-04-09T05:58:39.560Z,31.95
2023-04-09T06:01:27.500Z,31.60
2023-04-09T06:04:19.304Z,30.73
2023-04-09T06:07:07.639Z,31.33
2023-04-09T06:09:59.046Z,31.70
2023-04-09T06:12:47.677Z,31.33
2023-04-09T06:15:34.855Z,28.85
2023-04-09T06:18:22.255Z,28.50
2023-04-09T06:21:09.879Z,27.40
2023-04-09T06:24:00.124Z,25.13
2023-04-09T06:26:49.520Z,25.60
2023-04-09T06:29:40.527Z,26.25
2023-04-09T06:32:28.048Z,25.17
2023-04-09T06:35:20.136Z,26.17
2023-04-09T06:38:07.900Z,26.77
2023-04-09T06:40:57.074Z,25.27
2023-04-09T06:43:45.286Z,23.30
2023-04-09T06:46:33.745Z,22.88
2023-04-09T06:49:23.982Z,24.08
2023-04-09T06:52:11.153Z,22.95
2023-04-09T06:54:58.805Z,22.25
2023-04-09T06:57:46.358Z,21.08
2023-04-09T07:00:34.020Z,19.00
2023-04-09T07:03:21.985Z,18.83
2023-04-09T07:06:11.919Z,18.30
2023-04-09T07:08:59.224Z,18.13
2023-04-09T07:11:48.912Z,18.02
2023-04-09T07:14:39.472Z,18.13
2023-04-09T07:17:29.424Z,18.50
2023-04-09T07:20:16.774Z,18.00
2023-04-09T07:23:04.269Z,19.77
2023-04-09T07:29:48.389Z,17.85
2023-04-09T07:33:04.745Z,16.75
2023-04-09T07:39:52.720Z,16.13
2023-04-09T07:42:42.512Z,15.20
2023-04-09T08:10:57.590Z,10.75
2023-04-09T08:13:54.173Z,10.68
2023-04-09T08:20:36.470Z,8.43
2023-04-09T08:23:32.332Z,9.32
2023-04-09T08:30:09.004Z,9.60
2023-04-09T08:32:56.665Z,10.15
2023-04-09T08:35:44.395Z,9.30
2023-04-09T08:38:32.062Z,8.77
2023-04-09T08:41:21.655Z,11.65
2023-04-09T08:44:08.956Z,8.27
2023-04-09T08:46:59.949Z,9.15
2023-04-09T08:49:49.077Z,7.20
2023-04-09T08:52:53.844Z,5.75
2023-04-09T08:55:45.360Z,6.65
2023-04-09T08:58:38.862Z,7.10
2023-04-09T09:01:56.080Z,4.72
2023-04-09T09:04:50.902Z,5.07
2023-04-09T09:07:58.265Z,5.13
2023-04-09T09:10:46.180Z,6.43
2023-04-09T09:13:33.461Z,7.15
2023-04-09T09:16:21.602Z,6.80
2023-04-09T09:19:28.756Z,6.03
2023-04-09T09:22:16.314Z,5.80
2023-04-09T09:25:05.743Z,7.00
2023-04-09T09:27:54.374Z,5.55
2023-04-09T09:30:52.599Z,7.68
2023-04-09T09:33:40.828Z,6.90
2023-04-09T09:36:33.189Z,5.00
2023-04-09T09:39:22.301Z,5.70
2023-04-09T09:42:09.732Z,5.95
2023-04-09T09:44:56.971Z,6.43
2023-04-09T09:47:45.119Z,5.57
2023-04-09T09:50:34.292Z,5.72
2023-04-09T09:53:24.843Z,5.80
2023-04-09T09:56:21.712Z,7.32
2023-04-09T09:59:22.755Z,6.90
2023-04-09T10:02:19.261Z,7.03
2023-04-09T10:05:08.348Z,7.70
2023-04-09T10:07:57.808Z,6.35
2023-04-09T10:10:45.767Z,6.82
2023-04-09T10:13:39.462Z,5.88
2023-04-09T10:16:29.629Z,6.68
2023-04-09T10:19:20.008Z,6.80
2023-04-09T10:22:13.847Z,6.85
2023-04-09T10:25:01.541Z,6.38
2023-04-09T10:28:16.532Z,6.55
2023-04-09T10:31:07.889Z,5.90
2023-04-09T10:34:04.054Z,5.65
2023-04-09T10:37:04.014Z,4.18
2023-04-09T10:39:54.955Z,3.88
2023-04-09T10:42:45.290Z,3.85
2023-04-09T10:45:42.325Z,3.88
2023-04-09T10:48:34.095Z,4.95
2023-04-09T10:51:21.246Z,4.67
2023-04-09T10:54:37.647Z,4.13
2023-04-09T10:57:26.458Z,4.20
2023-04-09T11:00:13.827Z,4.38
2023-04-09T11:03:07.682Z,4.20
2023-04-09T11:06:07.379Z,5.10
2023-04-09T11:08:56.400Z,4.75
2023-04-09T11:11:43.583Z,5.10
2023-04-09T11:14:30.726Z,4.80
2023-04-09T11:17:19.116Z,4.38
2023-04-09T11:20:07.370Z,4.90
2023-04-09T11:22:56.148Z,5.30
2023-04-09T11:25:48.334Z,4.72
2023-04-09T11:28:35.963Z,5.35
2023-04-09T11:31:29.511Z,4.93
2023-04-09T11:34:17.395Z,4.88
2023-04-09T11:37:09.477Z,5.38
2023-04-09T11:39:58.576Z,5.25
2023-04-09T11:42:50.423Z,5.90
2023-04-09T11:45:38.246Z,5.15
2023-04-09T11:48:26.135Z,5.20
2023-04-09T11:51:13.738Z,5.22
2023-04-09T11:54:05.385Z,5.47
2023-04-09T11:56:56.150Z,5.35
2023-04-09T11:59:43.419Z,5.60
2023-04-09T12:02:31.530Z,5.22
2023-04-09T12:05:30.739Z,5.65
2023-04-09T12:08:23.851Z,5.18
2023-04-09T12:11:12.821Z,6.13
2023-04-09T12:14:04.382Z,5.57
2023-04-09T12:16:56.918Z,6.20
2023-04-09T12:22:31.424Z,6.25
2023-04-09T12:25:22.420Z,6.00
2023-04-09T12:28:12.200Z,5.78
2023-04-09T12:31:01.020Z,5.03
2023-04-09T12:33:52.342Z,5.97
2023-04-09T12:36:41.800Z,5.38
2023-04-09T12:39:29.030Z,5.20
2023-04-09T12:42:16.342Z,5.78
2023-04-09T12:45:04.123Z,5.50
2023-04-09T12:47:51.926Z,4.88
2023-04-09T12:50:39.508Z,4.63
2023-04-09T12:53:26.713Z,4.82
2023-04-09T12:56:14.327Z,4.30
2023-04-09T12:59:01.960Z,4.18
2023-04-09T13:01:49.256Z,5.20
2023-04-09T13:04:36.672Z,5.50
2023-04-09T13:07:25.377Z,5.13
2023-04-09T13:10:12.626Z,5.97
2023-04-09T13:12:59.948Z,5.25
2023-04-09T13:15:47.362Z,5.35
2023-04-09T13:18:34.910Z,5.63
2023-04-09T13:21:22.192Z,5.90
2023-04-09T13:24:09.348Z,5.05
2023-04-09T13:26:56.789Z,4.60
2023-04-09T13:29:44.075Z,5.13
2023-04-09T13:32:31.309Z,5.47
2023-04-09T13:35:19.305Z,5.22
2023-04-09T13:38:10.471Z,5.38
2023-04-09T13:41:00.095Z,4.90
2023-04-09T13:43:47.404Z,5.10
2023-04-09T13:46:34.618Z,5.20
2023-04-09T13:49:23.352Z,4.45
2023-04-09T13:52:11.217Z,5.13
2023-04-09T13:55:01.554Z,4.57
2023-04-09T13:57:53.108Z,4.80
2023-04-09T14:00:40.531Z,4.85
2023-04-09T14:03:30.629Z,5.35
2023-04-09T14:06:17.864Z,4.80
2023-04-09T14:09:04.984Z,5.03
2023-04-09T14:11:52.294Z,4.82
2023-04-09T14:14:39.506Z,4.85
2023-04-09T14:17:27.004Z,5.22
2023-04-09T14:20:14.329Z,5.22
2023-04-09T14:23:01.658Z,5.13
2023-04-09T14:25:52.180Z,5.35
2023-04-09T14:28:39.546Z,5.18
2023-04-09T14:31:28.235Z,4.55
2023-04-09T14:34:16.565Z,4.65
2023-04-09T14:37:10.653Z,4.85
2023-04-09T14:40:00.671Z,4.95
2023-04-09T14:42:48.730Z,4.70
2023-04-09T14:45:36.785Z,4.32
2023-04-09T14:48:42.394Z,4.78
2023-04-09T14:51:30.692Z,4.68
2023-04-09T14:54:19.356Z,4.55
2023-04-09T14:57:06.986Z,4.47
2023-04-09T14:59:54.178Z,4.50
2023-04-09T15:02:41.856Z,4.95
2023-04-09T15:05:29.355Z,5.15
2023-04-09T15:08:16.494Z,5.38
2023-04-09T15:11:06.399Z,5.00
2023-04-09T15:13:53.675Z,5.10
2023-04-09T15:16:41.024Z,6.30
2023-04-09T15:19:28.202Z,4.63
2023-04-09T15:22:15.760Z,5.60
2023-04-09T15:25:02.990Z,5.28
2023-04-09T15:27:53.503Z,5.38
2023-04-09T15:30:41.968Z,5.85
2023-04-09T15:33:29.106Z,4.60
2023-04-09T15:36:18.531Z,4.78
2023-04-09T15:39:08.035Z,4.80
2023-04-09T15:41:57.688Z,5.78
2023-04-09T15:44:48.524Z,5.07
2023-04-09T15:47:40.841Z,4.65
2023-04-09T15:50:28.008Z,5.30
2023-04-09T15:53:17.792Z,5.15
2023-04-09T15:56:05.523Z,5.78
2023-04-09T15:58:53.040Z,5.55
2023-04-09T16:01:40.701Z,6.25
2023-04-09T16:04:28.247Z,5.53
2023-04-09T16:07:18.249Z,5.80
2023-04-09T16:10:06.524Z,6.38
2023-04-09T16:12:54.173Z,6.03
2023-04-09T16:15:41.380Z,5.53
2023-04-09T16:18:28.814Z,5.90
2023-04-09T16:21:18.297Z,5.53
2023-04-09T16:24:05.782Z,6.50
2023-04-09T16:26:53.448Z,4.90
2023-04-09T16:29:40.681Z,5.32
2023-04-09T16:32:29.921Z,5.03
2023-04-09T16:35:17.140Z,5.28
2023-04-09T16:38:18.170Z,5.95
2023-04-09T16:41:08.054Z,5.85
2023-04-09T16:43:55.473Z,5.90
2023-04-09T16:46:44.062Z,5.97
2023-04-09T16:49:31.668Z,6.30
2023-04-09T16:52:21.431Z,6.10
2023-04-09T16:55:11.189Z,6.18
2023-04-09T16:57:59.038Z,6.18
2023-04-09T17:00:48.236Z,6.03
2023-04-09T17:03:36.778Z,6.35
2023-04-09T17:06:24.280Z,6.72
2023-04-09T17:09:11.585Z,6.38
2023-04-09T17:11:58.892Z,7.22
2023-04-09T17:14:46.619Z,7.20
2023-04-09T17:17:34.913Z,5.95
2023-04-09T17:20:22.849Z,6.43
2023-04-09T17:23:12.533Z,6.82
2023-04-09T17:26:00.542Z,6.28
2023-04-09T17:28:50.360Z,5.50
2023-04-09T17:31:39.147Z,5.63
2023-04-09T17:34:26.795Z,5.72
2023-04-09T17:37:14.206Z,6.40
2023-04-09T17:40:02.223Z,5.95
2023-04-09T17:42:50.589Z,5.53
2023-04-09T17:45:41.329Z,5.90
2023-04-09T17:48:32.130Z,6.03
2023-04-09T17:51:20.040Z,6.32
2023-04-09T17:54:10.741Z,6.97
2023-04-09T17:56:58.382Z,6.88
2023-04-09T17:59:45.998Z,6.30
2023-04-09T18:02:33.634Z,5.97
2023-04-09T18:05:23.377Z,6.55
2023-04-09T18:15:15.120Z,8.98
2023-04-09T18:19:17.196Z,7.82
2023-04-09T18:32:07.665Z,7.43
2023-04-09T18:34:55.085Z,7.00
2023-04-09T18:37:42.287Z,7.57
2023-04-09T18:40:29.567Z,6.72
2023-04-09T18:43:19.294Z,7.15
2023-04-09T18:46:07.442Z,8.13
2023-04-09T18:48:55.269Z,7.75
2023-04-09T18:51:42.862Z,7.78
2023-04-09T18:54:34.903Z,8.77
2023-04-09T18:57:25.195Z,9.23
2023-04-09T19:00:12.948Z,9.13
2023-04-09T19:03:00.249Z,8.55
2023-04-09T19:05:48.455Z,8.90
2023-04-09T19:08:51.982Z,8.65
2023-04-09T19:11:41.421Z,7.88
2023-04-09T19:14:28.938Z,8.68
2023-04-09T19:17:21.313Z,9.43
2023-04-09T19:20:09.253Z,9.68
2023-04-09T19:22:57.418Z,10.05
2023-04-09T19:25:44.642Z,9.63
2023-04-09T19:28:32.267Z,9.50
2023-04-09T19:31:19.514Z,9.77
2023-04-09T19:34:06.683Z,10.30
2023-04-09T19:36:56.432Z,9.30
2023-04-09T19:39:43.645Z,8.98
2023-04-09T19:42:34.930Z,8.98
2023-04-09T19:45:22.345Z,9.85
2023-04-09T19:48:09.919Z,10.63
2023-04-09T19:50:57.622Z,11.55
2023-04-09T19:53:46.879Z,12.10
2023-04-09T19:56:34.676Z,10.70
2023-04-09T19:59:21.813Z,10.75
2023-04-09T20:02:09.173Z,12.23
2023-04-09T20:04:56.442Z,12.18
2023-04-09T20:07:46.118Z,12.38
2023-04-09T20:10:33.471Z,13.07
2023-04-09T20:13:23.537Z,12.25
2023-04-09T20:16:13.670Z,12.40
2023-04-09T20:19:01.010Z,13.05
2023-04-09T20:21:49.103Z,12.68
2023-04-09T20:24:36.915Z,12.18
2023-04-09T20:27:24.601Z,12.38
2023-04-09T20:30:12.032Z,12.48
2023-04-09T20:33:02.198Z,11.98
2023-04-09T20:35:50.482Z,12.60
2023-04-09T20:38:37.752Z,11.75
2023-04-09T20:41:29.702Z,12.43
2023-04-09T20:44:20.027Z,12.70
2023-04-09T20:47:09.638Z,12.02
2023-04-09T20:49:59.847Z,11.68
2023-04-09T20:52:47.656Z,12.15
2023-04-09T20:55:35.890Z,12.10
2023-04-09T20:58:23.072Z,11.80
2023-04-09T21:01:13.139Z,11.65
2023-04-09T21:04:00.537Z,11.27
2023-04-09T21:06:50.234Z,12.23
2023-04-09T21:09:38.354Z,12.13
2023-04-09T21:12:29.835Z,12.18
2023-04-09T21:15:17.196Z,11.13
2023-04-09T21:18:04.456Z,11.32
2023-04-09T21:20:51.837Z,11.57
2023-04-09T21:23:39.133Z,11.10
2023-04-09T21:26:26.279Z,11.23
2023-04-09T21:29:15.921Z,11.88
2023-04-09T21:32:05.529Z,13.02
2023-04-09T21:34:53.645Z,12.00
2023-04-09T21:37:40.934Z,12.10
2023-04-09T21:40:28.102Z,13.57
2023-04-09T21:43:15.366Z,14.18
2023-04-09T21:46:03.221Z,14.25
2023-04-09T21:48:51.237Z,13.65
2023-04-09T21:51:42.913Z,12.50
2023-04-09T21:54:32.607Z,13.75
2023-04-09T21:57:20.418Z,13.30
2023-04-09T22:00:10.613Z,13.57
2023-04-09T22:03:03.519Z,12.95
2023-04-09T22:05:50.900Z,14.02
2023-04-09T22:08:49.215Z,14.25
2023-04-09T22:11:42.680Z,14.10
2023-04-09T22:14:30.650Z,14.23
2023-04-09T22:17:17.902Z,13.80
2023-04-09T22:20:06.695Z,17.23
2023-04-09T22:22:54.523Z,16.40
2023-04-09T22:25:42.011Z,15.15
2023-04-09T22:28:29.746Z,15.68
2023-04-09T22:31:19.988Z,14.60
2023-04-09T22:34:19.836Z,14.80
2023-04-09T22:37:11.091Z,13.60
2023-04-09T22:39:58.286Z,12.98
2023-04-09T22:42:49.636Z,13.40
2023-04-09T22:45:39.225Z,13.43
2023-04-09T22:48:26.409Z,14.02
2023-04-09T22:51:14.607Z,15.27
2023-04-09T22:54:04.301Z,14.05
2023-04-09T22:56:52.410Z,14.57
2023-04-09T22:59:40.855Z,14.35
2023-04-09T23:02:28.586Z,15.10
2023-04-09T23:05:17.320Z,13.80
2023-04-09T23:08:09.292Z,14.73
2023-04-09T23:10:58.673Z,14.52
2023-04-09T23:13:45.884Z,14.68
2023-04-09T23:16:34.173Z,14.57
2023-04-09T23:19:21.795Z,14.45
2023-04-09T23:22:09.042Z,14.95
2023-04-09T23:24:58.710Z,14.48
2023-04-09T23:27:46.657Z,13.85
2023-04-09T23:30:35.935Z,13.52
2023-04-09T23:33:23.752Z,14.80
2023-04-09T23:36:10.933Z,14.10
2023-04-09T23:38:58.123Z,13.63
2023-04-09T23:41:45.516Z,14.75
2023-04-09T23:44:32.844Z,14.00
2023-04-09T23:47:19.988Z,14.50
2023-04-09T23:50:10.464Z,14.07
2023-04-09T23:52:59.969Z,14.57
2023-04-09T23:55:51.032Z,14.85
2023-04-09T23:58:38.287Z,15.30
